createdAt,value
2017-08-24T00:01:05.200Z,3.77
2017-08-24T00:03:30.975Z,5.00
2017-08-24T00:05:56.760Z,4.47
2017-08-24T00:08:22.600Z,4.30
2017-08-24T00:10:48.381Z,5.10
2017-08-24T00:13:14.131Z,4.80
2017-08-24T00:15:40.017Z,4.60
2017-08-24T00:18:05.807Z,4.13
2017-08-24T00:20:31.565Z,4.10
2017-08-24T00:22:57.347Z,4.07
2017-08-24T00:25:23.134Z,4.07
2017-08-24T00:27:48.891Z,3.90
2017-08-24T00:30:14.663Z,4.57
2017-08-24T00:32:40.447Z,4.00
2017-08-24T00:35:06.211Z,3.97
2017-08-24T00:37:32.010Z,4.00
2017-08-24T00:39:57.782Z,4.07
2017-08-24T00:42:23.552Z,4.10
2017-08-24T00:44:49.345Z,4.10
2017-08-24T00:47:15.105Z,5.20
2017-08-24T00:49:40.955Z,3.90
2017-08-24T00:52:06.705Z,5.07
2017-08-24T00:54:32.550Z,5.13
2017-08-24T00:56:58.368Z,5.03
2017-08-24T00:59:24.124Z,4.17
2017-08-24T01:01:49.942Z,3.67
2017-08-24T01:04:15.701Z,4.50
2017-08-24T01:06:41.455Z,4.63
2017-08-24T01:09:07.280Z,4.80
2017-08-24T01:11:33.116Z,5.03
2017-08-24T01:13:58.871Z,4.30
2017-08-24T01:16:24.654Z,4.40
2017-08-24T01:18:50.422Z,4.67
2017-08-24T01:21:16.225Z,4.10
2017-08-24T01:23:42.022Z,3.70
2017-08-24T01:26:07.769Z,4.50
2017-08-24T01:28:33.560Z,4.37
2017-08-24T01:30:59.439Z,4.53
2017-08-24T01:33:25.201Z,4.03
2017-08-24T01:35:50.961Z,4.93
2017-08-24T01:38:16.733Z,4.87
2017-08-24T01:40:42.512Z,3.97
2017-08-24T01:43:08.303Z,4.70
2017-08-24T01:45:34.049Z,4.83
2017-08-24T01:47:59.827Z,5.40
2017-08-24T01:50:25.647Z,5.90
2017-08-24T01:52:51.386Z,6.00
2017-08-24T01:55:17.145Z,7.37
2017-08-24T01:57:42.937Z,6.10
2017-08-24T02:00:08.692Z,6.20
2017-08-24T02:02:34.479Z,4.60
2017-08-24T02:05:00.233Z,4.73
2017-08-24T02:07:26.066Z,4.50
2017-08-24T02:09:51.853Z,4.80
2017-08-24T02:12:17.590Z,5.07
2017-08-24T02:14:43.360Z,5.50
2017-08-24T02:17:09.123Z,5.40
2017-08-24T02:19:34.916Z,4.47
2017-08-24T02:22:00.712Z,6.30
2017-08-24T02:24:26.473Z,6.20
2017-08-24T02:26:52.235Z,5.50
2017-08-24T02:29:18.024Z,5.37
2017-08-24T02:31:43.820Z,5.10
2017-08-24T02:34:09.568Z,5.93
2017-08-24T02:36:35.341Z,6.03
2017-08-24T02:39:01.098Z,5.93
2017-08-24T02:41:26.839Z,6.47
2017-08-24T02:43:52.598Z,6.57
2017-08-24T02:46:18.376Z,5.27
2017-08-24T02:48:44.160Z,5.07
2017-08-24T02:51:10.016Z,5.07
2017-08-24T02:53:35.783Z,6.23
2017-08-24T02:56:01.556Z,4.80
2017-08-24T02:58:27.379Z,4.57
2017-08-24T03:00:53.159Z,4.77
2017-08-24T03:03:18.974Z,5.00
2017-08-24T03:05:44.717Z,5.60
2017-08-24T03:08:10.487Z,5.10
2017-08-24T03:10:36.339Z,5.87
2017-08-24T03:13:02.116Z,6.40
2017-08-24T03:15:27.923Z,5.00
2017-08-24T03:17:53.727Z,6.13
2017-08-24T03:20:19.468Z,5.43
2017-08-24T03:22:45.230Z,5.30
2017-08-24T03:25:11.027Z,5.30
2017-08-24T03:27:36.796Z,5.47
2017-08-24T03:30:02.567Z,6.00
2017-08-24T03:32:28.354Z,5.53
2017-08-24T03:34:54.108Z,5.57
2017-08-24T03:37:19.900Z,6.73
2017-08-24T03:39:45.650Z,6.03
2017-08-24T03:42:11.438Z,6.10
2017-08-24T03:44:37.207Z,5.93
2017-08-24T03:47:03.066Z,5.27
2017-08-24T03:49:28.877Z,5.47
2017-08-24T03:51:54.641Z,5.70
2017-08-24T03:54:20.405Z,4.60
2017-08-24T03:56:46.180Z,4.70
2017-08-24T03:59:12.632Z,4.00
2017-08-24T04:01:38.448Z,4.60
2017-08-24T04:04:04.245Z,4.60
2017-08-24T04:06:30.045Z,3.97
2017-08-24T04:08:55.799Z,4.30
2017-08-24T04:11:21.624Z,4.00
2017-08-24T04:13:47.400Z,4.60
2017-08-24T04:16:13.189Z,4.60
2017-08-24T04:18:38.983Z,4.40
2017-08-24T04:21:04.748Z,5.10
2017-08-24T04:23:30.487Z,4.23
2017-08-24T04:25:56.244Z,4.87
2017-08-24T04:28:22.096Z,4.93
2017-08-24T04:30:47.899Z,5.57
2017-08-24T04:33:13.647Z,5.30
2017-08-24T04:35:39.416Z,5.43
2017-08-24T04:38:05.229Z,5.37
2017-08-24T04:40:31.028Z,5.20
2017-08-24T04:42:56.775Z,5.03
2017-08-24T04:45:22.608Z,4.47
2017-08-24T04:47:48.363Z,6.00
2017-08-24T04:50:14.147Z,5.17
2017-08-24T04:52:39.937Z,5.60
2017-08-24T04:55:05.712Z,4.97
2017-08-24T04:57:31.504Z,5.00
2017-08-24T04:59:57.250Z,5.87
2017-08-24T05:02:23.034Z,7.13
2017-08-24T05:04:48.847Z,7.30
2017-08-24T05:07:14.603Z,7.70
2017-08-24T05:09:40.495Z,8.00
2017-08-24T05:12:06.292Z,9.00
2017-08-24T05:14:32.027Z,8.10
2017-08-24T05:16:57.763Z,7.10
2017-08-24T05:19:23.557Z,6.40
2017-08-24T05:21:49.319Z,7.07
2017-08-24T05:24:15.079Z,7.80
2017-08-24T05:26:40.850Z,7.53
2017-08-24T05:29:06.643Z,7.43
2017-08-24T05:31:32.440Z,9.83
2017-08-24T05:33:58.205Z,8.73
2017-08-24T05:36:24.003Z,7.90
2017-08-24T05:38:49.827Z,9.03
2017-08-24T05:41:15.584Z,10.30
2017-08-24T05:43:41.347Z,11.97
2017-08-24T05:46:07.143Z,10.70
2017-08-24T05:48:32.921Z,12.50
2017-08-24T05:50:58.716Z,12.23
2017-08-24T05:53:24.495Z,12.90
2017-08-24T05:55:50.247Z,11.67
2017-08-24T05:58:16.032Z,11.27
2017-08-24T06:00:41.805Z,11.20
2017-08-24T06:03:07.596Z,13.83
2017-08-24T06:05:33.360Z,13.70
2017-08-24T06:07:59.151Z,13.93
2017-08-24T06:10:24.931Z,13.43
2017-08-24T06:12:50.707Z,14.30
2017-08-24T06:15:16.451Z,13.07
2017-08-24T06:17:42.228Z,13.90
2017-08-24T06:20:07.999Z,13.60
2017-08-24T06:22:33.796Z,13.23
2017-08-24T06:24:59.545Z,12.77
2017-08-24T06:27:25.331Z,13.23
2017-08-24T06:29:51.115Z,11.57
2017-08-24T06:32:16.870Z,12.90
2017-08-24T06:34:42.648Z,12.33
2017-08-24T06:37:08.443Z,11.83
2017-08-24T06:39:34.196Z,11.20
2017-08-24T06:41:59.938Z,11.23
2017-08-24T06:44:25.711Z,11.07
2017-08-24T06:46:51.623Z,11.90
2017-08-24T06:49:17.377Z,11.20
2017-08-24T06:51:43.248Z,9.77
2017-08-24T06:54:08.991Z,10.83
2017-08-24T06:56:34.735Z,11.47
2017-08-24T06:59:00.552Z,11.00
2017-08-24T07:01:26.302Z,9.60
2017-08-24T07:03:52.047Z,11.13
2017-08-24T07:06:17.836Z,12.47
2017-08-24T07:08:43.588Z,15.10
2017-08-24T07:11:09.356Z,16.77
2017-08-24T07:13:35.147Z,16.30
2017-08-24T07:16:00.916Z,19.47
2017-08-24T07:18:26.721Z,17.90
2017-08-24T07:20:52.463Z,17.70
2017-08-24T07:23:18.264Z,18.10
2017-08-24T07:25:44.055Z,16.80
2017-08-24T07:28:10.715Z,17.67
2017-08-24T07:30:36.464Z,19.43
2017-08-24T07:33:02.232Z,18.10
2017-08-24T07:35:28.021Z,17.20
2017-08-24T07:37:53.803Z,17.10
2017-08-24T07:40:19.556Z,17.90
2017-08-24T07:42:45.460Z,16.33
2017-08-24T07:45:11.223Z,16.17
2017-08-24T07:47:37.018Z,15.87
2017-08-24T07:50:02.771Z,14.57
2017-08-24T07:52:28.519Z,15.00
2017-08-24T07:54:54.321Z,14.80
2017-08-24T07:57:20.095Z,13.00
2017-08-24T07:59:45.884Z,15.20
2017-08-24T08:02:11.730Z,12.67
2017-08-24T08:04:38.413Z,13.00
2017-08-24T08:07:04.188Z,12.70
2017-08-24T08:09:29.949Z,13.37
2017-08-24T08:11:55.712Z,11.03
2017-08-24T08:14:21.513Z,9.97
2017-08-24T08:16:47.300Z,10.73
2017-08-24T08:19:13.047Z,10.90
2017-08-24T08:21:38.820Z,10.60
2017-08-24T08:24:04.603Z,9.20
2017-08-24T08:26:30.392Z,8.37
2017-08-24T08:28:56.159Z,8.30
2017-08-24T08:31:21.988Z,8.77
2017-08-24T08:33:47.729Z,7.37
2017-08-24T08:36:13.475Z,7.70
2017-08-24T08:38:39.275Z,6.90
2017-08-24T08:41:05.023Z,8.30
2017-08-24T08:43:30.857Z,7.23
2017-08-24T08:45:56.636Z,6.57
2017-08-24T08:48:22.415Z,7.47
2017-08-24T08:50:48.180Z,6.93
2017-08-24T08:53:13.949Z,7.00
2017-08-24T08:55:39.848Z,7.13
2017-08-24T08:58:05.599Z,7.33
2017-08-24T09:00:31.367Z,6.80
2017-08-24T09:02:57.127Z,6.60
2017-08-24T09:05:22.916Z,6.00
2017-08-24T09:07:48.676Z,6.40
2017-08-24T09:10:14.424Z,6.70
2017-08-24T09:12:40.300Z,7.30
2017-08-24T09:15:06.076Z,6.13
2017-08-24T09:17:31.826Z,7.00
2017-08-24T09:19:57.642Z,6.70
2017-08-24T09:22:23.472Z,6.67
2017-08-24T09:24:49.415Z,6.20
2017-08-24T09:27:15.201Z,5.53
2017-08-24T09:29:41.055Z,5.83
2017-08-24T09:32:06.851Z,5.43
2017-08-24T09:34:32.624Z,5.90
2017-08-24T09:36:58.408Z,5.73
2017-08-24T09:39:24.243Z,5.37
2017-08-24T09:41:50.014Z,6.20
2017-08-24T09:44:16.307Z,6.07
2017-08-24T09:46:42.337Z,5.70
2017-08-24T09:49:08.467Z,5.93
2017-08-24T09:51:34.809Z,6.07
2017-08-24T09:54:00.923Z,5.37
2017-08-24T09:56:27.277Z,6.07
2017-08-24T09:58:53.387Z,5.30
2017-08-24T10:01:19.626Z,6.13
2017-08-24T10:03:46.083Z,5.30
2017-08-24T10:06:11.846Z,5.50
2017-08-24T10:08:37.719Z,5.10
2017-08-24T10:11:03.570Z,5.77
2017-08-24T10:13:29.412Z,5.20
2017-08-24T10:15:55.206Z,5.30
2017-08-24T10:18:20.979Z,5.80
2017-08-24T10:20:46.815Z,5.10
2017-08-24T10:23:12.584Z,5.47
2017-08-24T10:25:38.348Z,5.43
2017-08-24T10:28:04.132Z,5.77
2017-08-24T10:30:29.924Z,4.70
2017-08-24T10:32:55.716Z,4.67
2017-08-24T10:35:21.528Z,5.27
2017-08-24T10:37:47.369Z,5.00
2017-08-24T10:40:13.232Z,5.30
2017-08-24T10:42:39.012Z,6.20
2017-08-24T10:45:04.796Z,3.87
2017-08-24T10:47:30.619Z,4.43
2017-08-24T10:49:56.380Z,4.60
2017-08-24T10:52:22.169Z,4.63
2017-08-24T10:54:48.951Z,4.50
2017-08-24T10:57:14.756Z,4.50
2017-08-24T10:59:40.531Z,5.73
2017-08-24T11:02:06.292Z,4.23
2017-08-24T11:04:32.164Z,4.93
2017-08-24T11:06:58.027Z,5.43
2017-08-24T11:09:23.787Z,4.70
2017-08-24T11:11:49.590Z,5.00
2017-08-24T11:14:15.346Z,4.40
2017-08-24T11:16:41.149Z,4.60
2017-08-24T11:19:06.926Z,4.47
2017-08-24T11:21:32.694Z,4.13
2017-08-24T11:23:58.495Z,5.40
2017-08-24T11:26:24.755Z,4.70
2017-08-24T11:28:50.516Z,4.40
2017-08-24T11:31:16.304Z,4.50
2017-08-24T11:33:42.123Z,4.20
2017-08-24T11:36:07.916Z,3.90
2017-08-24T11:38:33.752Z,3.97
2017-08-24T11:40:59.578Z,4.80
2017-08-24T11:43:25.324Z,4.87
2017-08-24T11:45:51.075Z,5.13
2017-08-24T11:48:16.884Z,4.40
2017-08-24T11:50:42.639Z,4.57
2017-08-24T11:53:08.486Z,3.80
2017-08-24T11:55:34.344Z,4.13
2017-08-24T11:58:00.097Z,4.30
2017-08-24T12:00:25.879Z,3.50
2017-08-24T12:02:51.622Z,4.20
2017-08-24T12:05:17.400Z,4.13
2017-08-24T12:07:43.162Z,3.80
2017-08-24T12:10:08.916Z,4.10
2017-08-24T12:12:34.719Z,4.30
2017-08-24T12:15:00.492Z,4.07
2017-08-24T12:17:26.263Z,4.50
2017-08-24T12:19:52.043Z,4.30
2017-08-24T12:22:17.816Z,4.03
2017-08-24T12:24:43.603Z,3.70
2017-08-24T12:27:10.221Z,4.00
2017-08-24T12:29:35.974Z,3.53
2017-08-24T12:32:01.870Z,3.37
2017-08-24T12:34:27.655Z,4.10
2017-08-24T12:36:53.539Z,4.50
2017-08-24T12:39:19.382Z,3.77
2017-08-24T12:41:45.188Z,4.23
2017-08-24T12:44:10.972Z,4.27
2017-08-24T12:46:37.776Z,3.90
2017-08-24T12:49:03.669Z,3.73
2017-08-24T12:51:29.521Z,4.20
2017-08-24T12:53:55.302Z,3.87
2017-08-24T12:56:21.063Z,3.20
2017-08-24T12:58:46.864Z,3.93
2017-08-24T13:01:12.654Z,4.90
2017-08-24T13:03:38.406Z,3.40
2017-08-24T13:06:04.220Z,3.80
2017-08-24T13:08:29.984Z,3.90
2017-08-24T13:10:55.769Z,3.27
2017-08-24T13:13:21.567Z,3.50
2017-08-24T13:15:47.394Z,3.17
2017-08-24T13:18:13.199Z,2.97
2017-08-24T13:20:38.966Z,3.50
2017-08-24T13:23:04.766Z,3.53
2017-08-24T13:25:30.512Z,3.27
2017-08-24T13:27:57.331Z,3.33
2017-08-24T13:30:23.161Z,3.23
2017-08-24T13:32:48.920Z,3.30
2017-08-24T13:35:14.731Z,3.37
2017-08-24T13:37:40.552Z,2.90
2017-08-24T13:40:06.359Z,3.30
2017-08-24T13:42:32.160Z,3.10
2017-08-24T13:44:57.913Z,3.27
2017-08-24T13:47:23.735Z,4.47
2017-08-24T13:49:49.575Z,3.60
2017-08-24T13:52:15.332Z,2.90
2017-08-24T13:54:41.975Z,3.60
2017-08-24T13:57:07.932Z,3.17
2017-08-24T13:59:33.775Z,3.50
2017-08-24T14:01:59.531Z,3.60
2017-08-24T14:04:25.353Z,3.90
2017-08-24T14:06:51.132Z,2.73
2017-08-24T14:09:16.923Z,2.73
2017-08-24T14:11:42.796Z,3.70
2017-08-24T14:14:08.591Z,3.27
2017-08-24T14:16:35.067Z,3.20
2017-08-24T14:19:01.507Z,2.83
2017-08-24T14:21:28.052Z,3.23
2017-08-24T14:23:54.488Z,3.67
2017-08-24T14:26:20.260Z,3.60
2017-08-24T14:28:46.130Z,3.50
2017-08-24T14:31:11.979Z,3.83
2017-08-24T14:33:37.792Z,3.80
2017-08-24T14:36:03.691Z,4.33
2017-08-24T14:38:29.531Z,3.83
2017-08-24T14:40:55.377Z,3.30
2017-08-24T14:43:21.171Z,3.90
2017-08-24T14:45:46.940Z,3.13
2017-08-24T14:48:13.756Z,3.73
2017-08-24T14:50:39.535Z,3.53
2017-08-24T14:53:05.338Z,2.93
2017-08-24T14:55:31.239Z,3.80
2017-08-24T14:57:56.986Z,3.37
2017-08-24T15:00:22.788Z,3.73
2017-08-24T15:02:48.601Z,4.13
2017-08-24T15:05:14.376Z,3.80
2017-08-24T15:07:40.256Z,3.60
2017-08-24T15:10:06.054Z,4.10
2017-08-24T15:12:31.914Z,2.80
2017-08-24T15:14:58.800Z,3.50
2017-08-24T15:17:24.539Z,3.20
2017-08-24T15:19:50.285Z,3.53
2017-08-24T15:22:16.161Z,3.30
2017-08-24T15:24:41.955Z,3.40
2017-08-24T15:27:07.756Z,2.90
2017-08-24T15:29:33.544Z,3.07
2017-08-24T15:31:59.312Z,3.00
2017-08-24T15:34:25.076Z,2.90
2017-08-24T15:36:50.867Z,3.30
2017-08-24T15:39:16.680Z,3.33
2017-08-24T15:41:43.248Z,2.40
2017-08-24T15:44:09.045Z,2.60
2017-08-24T15:46:34.855Z,2.30
2017-08-24T15:49:00.651Z,2.40
2017-08-24T15:51:26.391Z,2.67
2017-08-24T15:53:52.287Z,2.33
2017-08-24T15:56:18.068Z,2.67
2017-08-24T15:58:43.904Z,2.50
2017-08-24T16:01:09.687Z,2.50
2017-08-24T16:03:35.531Z,3.00
2017-08-24T16:06:01.316Z,2.57
2017-08-24T16:08:27.124Z,2.60
2017-08-24T16:10:52.947Z,2.70
2017-08-24T16:13:18.706Z,2.47
2017-08-24T16:15:44.527Z,2.43
2017-08-24T16:18:10.283Z,2.53
2017-08-24T16:20:36.116Z,2.97
2017-08-24T16:23:01.968Z,2.37
2017-08-24T16:25:27.755Z,2.77
2017-08-24T16:27:53.607Z,2.90
2017-08-24T16:30:19.356Z,2.50
2017-08-24T16:32:45.187Z,3.03
2017-08-24T16:35:10.940Z,2.53
2017-08-24T16:37:36.748Z,2.67
2017-08-24T16:40:02.504Z,2.30
2017-08-24T16:42:28.255Z,2.23
2017-08-24T16:44:54.040Z,2.70
2017-08-24T16:47:19.796Z,1.87
2017-08-24T16:49:45.571Z,2.53
2017-08-24T16:52:11.459Z,3.10
2017-08-24T16:54:37.239Z,21.87
2017-08-24T16:57:02.988Z,9.70
2017-08-24T16:59:28.739Z,1.77
2017-08-24T17:01:54.519Z,2.10
2017-08-24T17:04:20.308Z,2.20
2017-08-24T17:06:46.188Z,2.17
2017-08-24T17:09:12.004Z,1.90
2017-08-24T17:11:37.764Z,2.30
2017-08-24T17:14:03.566Z,2.10
2017-08-24T17:16:29.340Z,1.67
2017-08-24T17:18:55.212Z,2.00
2017-08-24T17:21:20.975Z,1.63
2017-08-24T17:23:46.744Z,2.10
2017-08-24T17:26:12.534Z,1.77
2017-08-24T17:28:38.292Z,1.80
2017-08-24T17:31:04.052Z,2.10
2017-08-24T17:33:29.832Z,1.77
2017-08-24T17:35:55.590Z,1.63
2017-08-24T17:38:21.440Z,1.60
2017-08-24T17:40:47.231Z,1.93
2017-08-24T17:43:13.041Z,1.53
2017-08-24T17:45:38.915Z,2.60
2017-08-24T17:48:04.665Z,1.97
2017-08-24T17:50:30.535Z,4.10
2017-08-24T17:52:56.332Z,1.87
2017-08-24T17:55:22.096Z,1.67
2017-08-24T17:57:47.886Z,1.93
2017-08-24T18:00:13.689Z,1.57
2017-08-24T18:02:39.428Z,1.80
2017-08-24T18:05:05.175Z,2.00
2017-08-24T18:07:31.011Z,1.80
2017-08-24T18:09:56.747Z,2.17
2017-08-24T18:12:22.495Z,1.70
2017-08-24T18:14:48.279Z,2.00
2017-08-24T18:17:14.031Z,1.80
2017-08-24T18:19:39.823Z,2.03
2017-08-24T18:22:05.572Z,1.53
2017-08-24T18:24:31.432Z,1.87
2017-08-24T18:26:57.179Z,1.80
2017-08-24T18:29:22.932Z,2.03
2017-08-24T18:31:48.687Z,1.83
2017-08-24T18:34:14.438Z,1.40
2017-08-24T18:36:40.312Z,2.23
2017-08-24T18:39:06.091Z,2.00
2017-08-24T18:41:31.847Z,2.40
2017-08-24T18:43:57.668Z,1.90
2017-08-24T18:46:23.504Z,1.90
2017-08-24T18:48:49.268Z,1.77
2017-08-24T18:51:15.021Z,1.90
2017-08-24T18:53:40.875Z,1.73
2017-08-24T18:56:06.619Z,1.80
2017-08-24T18:58:32.355Z,1.73
2017-08-24T19:00:58.138Z,2.07
2017-08-24T19:03:23.882Z,2.53
2017-08-24T19:05:49.639Z,2.07
2017-08-24T19:08:15.392Z,1.90
2017-08-24T19:10:41.172Z,1.90
2017-08-24T19:13:06.935Z,2.20
2017-08-24T19:15:32.751Z,1.77
2017-08-24T19:17:59.361Z,1.63
2017-08-24T19:20:25.112Z,2.00
2017-08-24T19:22:50.958Z,5.27
2017-08-24T19:25:16.727Z,5.20
2017-08-24T19:27:42.496Z,2.83
2017-08-24T19:30:08.352Z,2.10
2017-08-24T19:32:34.128Z,1.80
2017-08-24T19:34:59.905Z,2.50
2017-08-24T19:37:25.689Z,1.97
2017-08-24T19:39:51.469Z,2.20
2017-08-24T19:42:17.309Z,2.27
2017-08-24T19:44:43.017Z,2.20
2017-08-24T19:47:08.836Z,1.97
2017-08-24T19:49:34.603Z,1.63
2017-08-24T19:52:00.364Z,1.87
2017-08-24T19:54:26.136Z,1.70
2017-08-24T19:56:52.014Z,1.87
2017-08-24T19:59:17.795Z,2.03
2017-08-24T20:01:43.604Z,2.30
2017-08-24T20:04:09.529Z,1.70
2017-08-24T20:06:35.392Z,1.80
2017-08-24T20:09:01.138Z,1.90
2017-08-24T20:11:26.955Z,2.13
2017-08-24T20:13:52.725Z,1.67
2017-08-24T20:16:18.523Z,2.23
2017-08-24T20:18:44.277Z,2.17
2017-08-24T20:21:10.029Z,1.77
2017-08-24T20:23:35.892Z,2.50
2017-08-24T20:26:01.635Z,1.90
2017-08-24T20:28:27.389Z,2.30
2017-08-24T20:30:53.161Z,1.67
2017-08-24T20:33:18.924Z,2.13
2017-08-24T20:35:44.820Z,2.13
2017-08-24T20:38:10.578Z,2.33
2017-08-24T20:40:36.392Z,2.30
2017-08-24T20:43:02.137Z,2.40
2017-08-24T20:45:27.892Z,2.50
2017-08-24T20:47:53.688Z,1.80
2017-08-24T20:50:19.456Z,2.30
2017-08-24T20:52:45.238Z,2.03
2017-08-24T20:55:11.038Z,12.23
2017-08-24T20:57:36.779Z,4.70
2017-08-24T21:00:02.548Z,2.20
2017-08-24T21:02:28.340Z,1.80
2017-08-24T21:04:54.095Z,1.77
2017-08-24T21:07:19.856Z,1.90
2017-08-24T21:09:45.627Z,1.77
2017-08-24T21:12:11.386Z,2.43
2017-08-24T21:14:37.152Z,1.97
2017-08-24T21:17:02.912Z,1.90
2017-08-24T21:19:28.687Z,3.40
2017-08-24T21:21:54.499Z,2.47
2017-08-24T21:24:20.256Z,2.00
2017-08-24T21:26:46.111Z,2.97
2017-08-24T21:29:11.860Z,2.33
2017-08-24T21:31:37.620Z,2.63
2017-08-24T21:34:03.405Z,2.57
2017-08-24T21:36:29.143Z,2.60
2017-08-24T21:38:54.931Z,1.60
2017-08-24T21:41:20.681Z,2.77
2017-08-24T21:43:46.459Z,2.20
2017-08-24T21:46:12.225Z,1.90
2017-08-24T21:48:37.991Z,1.60
2017-08-24T21:51:03.771Z,2.20
2017-08-24T21:53:29.547Z,3.00
2017-08-24T21:55:55.315Z,2.20
2017-08-24T21:58:21.099Z,2.10
2017-08-24T22:00:46.903Z,2.10
2017-08-24T22:03:12.651Z,2.10
2017-08-24T22:05:38.441Z,2.20
2017-08-24T22:08:04.179Z,2.37
2017-08-24T22:10:29.978Z,2.93
2017-08-24T22:12:55.716Z,2.47
2017-08-24T22:15:21.831Z,2.20
2017-08-24T22:17:47.572Z,1.97
2017-08-24T22:20:13.412Z,1.93
2017-08-24T22:22:39.200Z,2.23
2017-08-24T22:25:04.966Z,1.97
2017-08-24T22:27:30.703Z,2.50
2017-08-24T22:29:56.516Z,2.37
2017-08-24T22:32:22.286Z,2.27
2017-08-24T22:34:48.042Z,2.00
2017-08-24T22:37:13.850Z,2.00
2017-08-24T22:39:39.583Z,2.33
2017-08-24T22:42:05.364Z,2.60
2017-08-24T22:44:31.204Z,1.90
2017-08-24T22:46:56.956Z,2.13
2017-08-24T22:49:22.714Z,2.73
2017-08-24T22:51:48.460Z,2.40
2017-08-24T22:54:20.332Z,2.13
2017-08-24T22:56:52.156Z,2.30
2017-08-24T22:59:24.081Z,2.20
2017-08-24T23:01:55.915Z,1.87
2017-08-24T23:04:21.703Z,2.43
2017-08-24T23:06:47.451Z,2.40
2017-08-24T23:09:13.202Z,2.20
2017-08-24T23:11:38.996Z,2.23
2017-08-24T23:14:04.787Z,2.13
2017-08-24T23:16:30.576Z,2.40
2017-08-24T23:18:56.333Z,2.70
2017-08-24T23:21:22.199Z,2.20
2017-08-24T23:23:47.955Z,2.60
2017-08-24T23:26:13.696Z,2.37
2017-08-24T23:28:39.447Z,2.63
2017-08-24T23:31:05.319Z,2.30
2017-08-24T23:33:31.097Z,2.60
2017-08-24T23:35:56.919Z,3.10
2017-08-24T23:38:22.772Z,3.07
2017-08-24T23:40:48.532Z,2.80
2017-08-24T23:43:14.292Z,2.60
2017-08-24T23:45:40.080Z,2.37
2017-08-24T23:48:05.955Z,3.47
2017-08-24T23:50:31.744Z,2.90
2017-08-24T23:52:57.500Z,2.87
2017-08-24T23:55:23.339Z,4.10
2017-08-24T23:57:49.101Z,4.27
